Time;durP1;ratioP1;P1;durP2;ratioP2;P2;SDS_P1;SDS_P2;PMS_P1;PMS_P2;Temp;Humidity;BMP_temperature;BMP_pressure;BME280_temperature;BME280_humidity;BME280_pressure;Samples;Min_cycle;Max_cycle;Signal;HPM_P1;HPM_P2
2024/02/20 00:00:14;;;;;;;;;10.00;7.67;;;;;16.17;100.00;102542.09;2112477;27;46314;-51
2024/02/20 00:01:14;;;;;;;;;8.00;8.00;;;;;16.18;100.00;102538.50;2113911;27;46333;-53
2024/02/20 00:02:15;;;;;;;;;5.67;5.67;;;;;16.16;100.00;102538.53;2100401;28;46838;-52
2024/02/20 00:03:16;;;;;;;;;8.75;8.75;;;;;16.19;100.00;102540.28;2100347;28;46406;-52
2024/02/20 00:04:19;;;;;;;;;10.00;9.00;;;;;16.17;100.00;102537.63;2113016;27;46117;-50
2024/02/20 00:05:19;;;;;;;;;9.00;9.00;;;;;16.18;100.00;102538.50;2112461;27;46489;-53
2024/02/20 00:06:19;;;;;;;;;7.00;7.00;;;;;16.15;100.00;102539.44;2094410;28;45743;-53
2024/02/20 00:07:20;;;;;;;;;9.00;6.33;;;;;16.15;100.00;102534.09;2094558;28;47191;-52
2024/02/20 00:08:20;;;;;;;;;10.00;9.00;;;;;16.11;100.00;102543.06;2112511;27;46299;-50
2024/02/20 00:09:21;;;;;;;;;11.33;8.33;;;;;16.09;100.00;102536.84;2112260;27;46308;-53
2024/02/20 00:10:21;;;;;;;;;7.00;6.33;;;;;16.10;100.00;102540.41;2112925;27;46791;-53
2024/02/20 00:11:21;;;;;;;;;9.00;6.00;;;;;16.11;100.00;102550.22;2108280;27;46250;-53
2024/02/20 00:12:22;;;;;;;;;7.67;7.00;;;;;16.13;100.00;102548.41;2112952;27;45683;-52
2024/02/20 00:13:22;;;;;;;;;8.00;8.00;;;;;16.19;100.00;102549.19;2112718;27;46205;-50
2024/02/20 00:14:23;;;;;;;;;9.33;9.33;;;;;16.25;100.00;102548.19;2099585;28;46390;-49
2024/02/20 00:15:23;;;;;;;;;6.33;6.33;;;;;16.28;100.00;102549.97;2099501;27;46701;-52
2024/02/20 00:16:24;;;;;;;;;8.33;7.00;;;;;16.29;100.00;102552.63;2112006;27;46290;-53
2024/02/20 00:17:24;;;;;;;;;9.00;8.00;;;;;16.30;100.00;102549.03;2112705;27;46301;-52
2024/02/20 00:18:24;;;;;;;;;8.00;8.00;;;;;16.33;100.00;102550.78;2110093;27;46737;-52
2024/02/20 00:19:24;;;;;;;;;6.67;6.33;;;;;16.33;100.00;102550.78;2100207;28;46588;-53
2024/02/20 00:20:25;;;;;;;;;8.33;8.33;;;;;16.34;100.00;102545.38;2100389;28;45864;-52
2024/02/20 00:21:26;;;;;;;;;9.67;9.67;;;;;16.34;100.00;102545.38;2112805;27;47061;-50
2024/02/20 00:22:27;;;;;;;;;11.50;9.25;;;;;16.34;100.00;102544.50;2113197;27;47161;-53
2024/02/20 00:23:27;;;;;;;;;8.00;8.00;;;;;16.34;100.00;102548.06;2112518;27;46573;-51
2024/02/20 00:24:27;;;;;;;;;8.33;7.33;;;;;16.33;100.00;102542.72;2112026;27;46266;-53
2024/02/20 00:25:28;;;;;;;;;5.67;5.67;;;;;16.34;100.00;102542.69;2112054;27;46366;-50
2024/02/20 00:26:28;;;;;;;;;8.67;7.67;;;;;16.37;100.00;102539.97;2111423;27;46233;-52
2024/02/20 00:27:30;;;;;;;;;7.00;6.00;;;;;16.38;100.00;102543.53;2110514;27;46482;-52
2024/02/20 00:28:31;;;;;;;;;11.75;9.00;;;;;16.34;100.00;102548.06;2112719;27;46590;-53
2024/02/20 00:29:31;;;;;;;;;10.67;10.00;;;;;16.31;100.00;102541.88;2112160;27;46792;-51
2024/02/20 00:30:31;;;;;;;;;8.33;8.33;;;;;16.32;100.00;102543.66;2113045;27;46798;-50
2024/02/20 00:31:33;;;;;;;;;11.00;10.00;;;;;16.11;100.00;102548.41;2112745;27;46597;-51
2024/02/20 00:32:33;;;;;;;;;8.25;7.75;;;;;16.04;100.00;102549.44;2107760;27;46423;-52
2024/02/20 00:33:34;;;;;;;;;8.00;7.00;;;;;15.95;100.00;102549.56;2108504;27;46743;-51
2024/02/20 00:34:35;;;;;;;;;9.75;9.00;;;;;16.09;100.00;102554.72;2108127;27;45660;-54
2024/02/20 00:35:35;;;;;;;;;8.00;7.00;;;;;16.14;100.00;102552.88;2107887;27;46286;-54
2024/02/20 00:36:35;;;;;;;;;5.33;5.33;;;;;16.15;100.00;102551.97;2109362;27;46454;-53
2024/02/20 00:37:36;;;;;;;;;9.00;7.00;;;;;16.07;100.00;102552.06;2107347;27;46446;-51
2024/02/20 00:38:36;;;;;;;;;8.00;8.00;;;;;16.12;100.00;102551.97;2106671;27;46756;-51
2024/02/20 00:39:36;;;;;;;;;10.00;8.00;;;;;15.98;100.00;102551.31;2108200;27;46778;-52
2024/02/20 00:40:39;;;;;;;;;11.00;9.00;;;;;15.94;100.00;102553.16;2107397;27;46907;-50
2024/02/20 00:41:39;;;;;;;;;13.50;9.00;;;;;15.95;100.00;102551.38;2108018;27;47170;-51
2024/02/20 00:42:40;;;;;;;;;10.33;9.33;;;;;15.96;100.00;102554.03;2108015;27;46290;-54
2024/02/20 00:43:40;;;;;;;;;10.33;8.67;;;;;15.98;100.00;102548.63;2108295;27;46637;-50
2024/02/20 00:44:40;;;;;;;;;10.00;9.00;;;;;15.99;100.00;102556.66;2108220;27;47111;-53
2024/02/20 00:45:41;;;;;;;;;8.33;7.00;;;;;15.98;100.00;102556.66;2106398;27;45896;-52
2024/02/20 00:46:41;;;;;;;;;9.00;9.00;;;;;15.98;100.00;102560.22;2108209;27;46706;-53
2024/02/20 00:47:41;;;;;;;;;8.00;8.00;;;;;16.14;100.00;102553.75;2108262;27;46259;-50
2024/02/20 00:48:42;;;;;;;;;8.33;8.33;;;;;16.19;100.00;102561.72;2108266;27;46310;-51
2024/02/20 00:49:42;;;;;;;;;9.00;9.00;;;;;16.13;100.00;102565.38;2107886;27;46538;-52
2024/02/20 00:50:42;;;;;;;;;9.33;9.00;;;;;16.13;100.00;102568.06;2107998;27;45658;-53
2024/02/20 00:51:44;;;;;;;;;8.00;7.00;;;;;16.13;100.00;102573.41;2108305;27;46080;-53
2024/02/20 00:52:44;;;;;;;;;12.75;10.50;;;;;16.12;100.00;102574.28;2107845;27;46690;-50
2024/02/20 00:53:49;;;;;;;;;8.33;8.33;;;;;16.15;100.00;102571.59;2108436;27;46575;-49
2024/02/20 00:54:49;;;;;;;;;10.25;8.25;;;;;16.18;100.00;102566.19;2106726;27;46615;-51
2024/02/20 00:55:50;;;;;;;;;11.67;10.00;;;;;16.15;100.00;102566.25;2108581;27;46430;-53
2024/02/20 00:56:50;;;;;;;;;12.00;12.00;;;;;16.14;100.00;102552.88;2105802;27;46991;-53
2024/02/20 00:57:52;;;;;;;;;11.00;9.00;;;;;16.14;100.00;102561.78;2099199;28;46439;-51
2024/02/20 00:58:52;;;;;;;;;10.50;10.50;;;;;16.15;100.00;102555.53;2099121;27;46493;-51
2024/02/20 00:59:53;;;;;;;;;7.33;7.33;;;;;16.16;100.00;102549.25;2107114;27;46870;-50
2024/02/20 01:00:54;;;;;;;;;11.50;11.50;;;;;16.15;100.00;102542.13;2100291;28;46635;-53
2024/02/20 01:01:54;;;;;;;;;12.25;11.50;;;;;16.12;100.00;102539.47;2098397;28;46443;-51
2024/02/20 01:02:56;;;;;;;;;11.67;11.67;;;;;16.29;100.00;102544.59;2107298;27;45832;-50
2024/02/20 01:03:56;;;;;;;;;10.50;9.25;;;;;16.32;100.00;102547.22;2107772;27;46715;-52
2024/02/20 01:04:57;;;;;;;;;13.33;13.33;;;;;16.28;100.00;102544.63;2107682;27;46466;-49
2024/02/20 01:05:57;;;;;;;;;11.33;11.00;;;;;16.31;100.00;102545.44;2108603;27;46345;-52
2024/02/20 01:06:57;;;;;;;;;15.33;11.33;;;;;16.29;100.00;102549.06;2108202;27;45990;-51
2024/02/20 01:07:58;;;;;;;;;14.33;12.67;;;;;16.39;100.00;102550.69;2107393;27;46710;-50
2024/02/20 01:08:58;;;;;;;;;14.50;12.50;;;;;16.40;100.00;102547.09;2106801;27;46614;-51
2024/02/20 01:09:58;;;;;;;;;13.33;12.00;;;;;16.33;100.00;102551.66;2107426;27;46435;-51
2024/02/20 01:10:59;;;;;;;;;13.33;11.67;;;;;16.32;100.00;102555.25;2107727;27;46162;-48
2024/02/20 01:11:59;;;;;;;;;16.75;14.00;;;;;16.33;100.00;102559.69;2107239;27;46300;-51
2024/02/20 01:13:00;;;;;;;;;11.67;11.00;;;;;16.33;100.00;102556.13;2107685;27;46359;-49
2024/02/20 01:14:00;;;;;;;;;16.00;14.33;;;;;16.34;100.00;102563.25;2107200;27;46719;-50
2024/02/20 01:15:02;;;;;;;;;14.00;14.00;;;;;16.39;100.00;102558.72;2108595;27;46585;-49
2024/02/20 01:16:02;;;;;;;;;16.00;14.00;;;;;16.40;100.00;102557.81;2107905;27;46670;-51
2024/02/20 01:17:03;;;;;;;;;13.67;13.33;;;;;16.38;100.00;102560.50;2092771;28;46867;-49
2024/02/20 01:18:03;;;;;;;;;15.33;12.00;;;;;16.32;100.00;102563.28;2093412;28;46747;-54
2024/02/20 01:19:04;;;;;;;;;15.00;14.00;;;;;16.34;100.00;102565.94;2105867;27;46317;-52
2024/02/20 01:20:06;;;;;;;;;11.00;8.00;;;;;16.34;100.00;102561.47;2107358;27;46426;-54
2024/02/20 01:21:06;;;;;;;;;15.25;15.25;;;;;16.28;100.00;102560.69;2107983;27;46941;-51
2024/02/20 01:22:06;;;;;;;;;16.00;12.33;;;;;16.22;100.00;102558.09;2107984;27;46651;-49
2024/02/20 01:23:07;;;;;;;;;17.00;14.25;;;;;15.97;100.00;102566.50;2107179;27;45548;-51
2024/02/20 01:24:08;;;;;;;;;13.67;11.00;;;;;15.99;100.00;102561.13;2108368;27;46318;-52
2024/02/20 01:25:08;;;;;;;;;15.75;15.00;;;;;15.95;100.00;102562.97;2107078;27;46823;-52
2024/02/20 01:26:09;;;;;;;;;16.00;14.67;;;;;15.99;100.00;102566.47;2107751;27;46114;-49
2024/02/20 01:27:09;;;;;;;;;17.00;14.33;;;;;15.87;100.00;102560.38;2107338;27;46388;-49
2024/02/20 01:28:10;;;;;;;;;14.33;14.00;;;;;15.77;100.00;102555.22;2106689;27;46783;-50
2024/02/20 01:29:10;;;;;;;;;14.00;14.00;;;;;15.79;100.00;102558.75;2098466;28;46051;-51
2024/02/20 01:30:11;;;;;;;;;15.33;12.33;;;;;15.82;100.00;102566.72;2098651;28;46833;-52
2024/02/20 01:31:17;;;;;;;;;17.00;14.33;;;;;15.81;100.00;102564.97;2106961;27;46210;-52
2024/02/20 01:32:18;;;;;;;;;16.75;15.50;;;;;15.75;100.00;102568.63;2107324;27;46653;-51
2024/02/20 01:33:18;;;;;;;;;17.67;16.67;;;;;15.85;100.00;102564.00;2107265;27;46343;-51
2024/02/20 01:34:18;;;;;;;;;14.00;14.00;;;;;15.87;100.00;102555.03;2106609;27;46331;-51
2024/02/20 01:35:19;;;;;;;;;13.00;10.67;;;;;15.84;100.00;102556.88;2106341;27;46801;-53
2024/02/20 01:36:19;;;;;;;;;20.33;16.00;;;;;15.87;100.00;102555.03;2107356;27;46300;-50
2024/02/20 01:37:20;;;;;;;;;17.00;16.50;;;;;15.86;100.00;102553.25;2105893;27;46162;-51
2024/02/20 01:38:20;;;;;;;;;16.67;13.33;;;;;15.85;100.00;102551.50;2108065;27;46713;-51
2024/02/20 01:39:21;;;;;;;;;18.75;13.50;;;;;15.84;100.00;102555.06;2107785;27;46265;-53
2024/02/20 01:40:21;;;;;;;;;16.00;14.33;;;;;15.84;100.00;102552.41;2099624;28;46273;-51
2024/02/20 01:41:21;;;;;;;;;19.50;16.25;;;;;15.84;100.00;102552.41;2100001;28;46658;-52
2024/02/20 01:42:22;;;;;;;;;14.33;14.33;;;;;15.81;100.00;102555.13;2107631;27;46174;-50
2024/02/20 01:43:23;;;;;;;;;14.00;14.00;;;;;15.79;100.00;102559.63;2108108;27;46225;-52
2024/02/20 01:44:31;;;;;;;;;17.25;15.75;;;;;15.82;100.00;102554.22;2107784;27;45253;-50
2024/02/20 01:45:32;;;;;;;;;16.50;15.00;;;;;15.81;100.00;102551.56;2107561;27;46569;-50
2024/02/20 01:46:33;;;;;;;;;17.00;16.33;;;;;15.81;100.00;102548.88;2108127;27;46381;-51
2024/02/20 01:47:33;;;;;;;;;13.33;11.67;;;;;15.79;100.00;102556.06;2107726;27;46386;-49
2024/02/20 01:48:33;;;;;;;;;16.00;15.00;;;;;15.78;100.00;102554.28;2107750;27;46205;-52
2024/02/20 01:49:34;;;;;;;;;15.33;13.33;;;;;15.78;100.00;102551.63;2098980;28;46298;-50
2024/02/20 01:50:35;;;;;;;;;14.33;12.33;;;;;15.75;100.00;102557.00;2099247;28;46595;-50
2024/02/20 01:51:36;;;;;;;;;17.75;16.50;;;;;15.79;100.00;102550.72;2105382;27;46641;-49
2024/02/20 01:52:37;;;;;;;;;15.67;13.67;;;;;15.74;100.00;102557.91;2107465;27;47023;-48
2024/02/20 01:53:37;;;;;;;;;12.67;11.33;;;;;15.82;100.00;102556.91;2107757;27;46496;-47
2024/02/20 01:54:41;;;;;;;;;12.67;12.67;;;;;15.84;100.00;102559.56;2106836;27;46364;-49
2024/02/20 01:55:42;;;;;;;;;20.80;18.40;;;;;15.81;100.00;102554.25;2107278;27;47728;-53
2024/02/20 01:56:43;;;;;;;;;13.75;12.75;;;;;15.82;100.00;102564.94;2106206;27;46548;-51
2024/02/20 01:57:44;;;;;;;;;14.60;13.00;;;;;15.84;100.00;102563.09;2107661;27;46487;-52
2024/02/20 01:58:44;;;;;;;;;17.75;16.00;;;;;15.85;100.00;102558.63;2107055;27;46237;-52
2024/02/20 01:59:45;;;;;;;;;14.50;13.00;;;;;15.98;100.00;102562.03;2107529;27;46325;-50
2024/02/20 02:00:46;;;;;;;;;17.00;16.00;;;;;15.96;100.00;102561.16;2106524;27;47162;-49
2024/02/20 02:01:46;;;;;;;;;15.00;13.75;;;;;15.96;100.00;102561.16;2106611;27;46886;-52
2024/02/20 02:02:47;;;;;;;;;17.00;16.75;;;;;15.86;100.00;102566.66;2107279;27;46301;-50
2024/02/20 02:03:47;;;;;;;;;19.00;17.25;;;;;15.82;100.00;102564.03;2106296;27;46235;-49
2024/02/20 02:04:48;;;;;;;;;14.50;13.75;;;;;15.80;100.00;102561.38;2098028;28;46326;-49
2024/02/20 02:05:48;;;;;;;;;16.00;16.00;;;;;15.78;100.00;102562.31;2098914;28;47644;-52
2024/02/20 02:06:48;;;;;;;;;17.50;16.00;;;;;15.75;100.00;102560.59;2106659;27;46427;-49
2024/02/20 02:07:49;;;;;;;;;15.33;14.33;;;;;15.76;100.00;102556.13;2104553;27;46704;-54
2024/02/20 02:08:49;;;;;;;;;18.67;14.00;;;;;15.74;100.00;102569.50;2095020;28;46256;-49
2024/02/20 02:09:50;;;;;;;;;16.33;14.67;;;;;15.79;100.00;102572.13;2094121;28;46311;-54
2024/02/20 02:10:50;;;;;;;;;17.75;15.50;;;;;15.79;100.00;102575.69;2107042;27;46403;-51
2024/02/20 02:11:50;;;;;;;;;20.50;17.50;;;;;15.78;100.00;102559.66;2107655;27;46259;-53
2024/02/20 02:12:52;;;;;;;;;11.75;10.00;;;;;15.77;100.00;102565.91;2107298;27;46455;-51
2024/02/20 02:13:52;;;;;;;;;17.20;17.20;;;;;15.78;100.00;102559.66;2107526;27;45565;-54
2024/02/20 02:14:52;;;;;;;;;18.75;16.75;;;;;15.75;100.00;102557.91;2091673;28;46300;-52
2024/02/20 02:15:53;;;;;;;;;16.67;16.00;;;;;15.77;100.00;102556.09;2084605;28;46095;-51
2024/02/20 02:16:53;;;;;;;;;17.50;16.50;;;;;15.79;100.00;102556.06;2098383;28;46892;-52
2024/02/20 02:17:53;;;;;;;;;17.75;17.25;;;;;15.79;100.00;102548.03;2106259;27;46157;-51
2024/02/20 02:18:53;;;;;;;;;16.25;15.75;;;;;15.73;100.00;102553.44;2108307;27;46123;-53
2024/02/20 02:19:54;;;;;;;;;14.25;14.25;;;;;15.72;100.00;102549.00;2107351;27;46108;-49
2024/02/20 02:20:54;;;;;;;;;19.75;18.25;;;;;15.73;100.00;102556.13;2107865;27;46227;-54
2024/02/20 02:21:54;;;;;;;;;15.25;14.50;;;;;15.72;100.00;102551.69;2097538;28;46289;-50
2024/02/20 02:22:55;;;;;;;;;19.00;16.00;;;;;15.76;100.00;102556.13;2098087;28;46513;-49
2024/02/20 02:23:55;;;;;;;;;17.33;15.00;;;;;15.82;100.00;102556.00;2107953;27;46485;-50
2024/02/20 02:24:55;;;;;;;;;15.50;14.75;;;;;15.84;100.00;102554.19;2105780;27;45685;-49
2024/02/20 02:25:56;;;;;;;;;16.75;16.00;;;;;15.82;100.00;102547.97;2107887;27;46763;-53
2024/02/20 02:26:56;;;;;;;;;17.75;16.75;;;;;15.83;100.00;102547.06;2106668;27;46678;-52
2024/02/20 02:27:57;;;;;;;;;19.25;16.00;;;;;15.84;100.00;102552.41;2107794;27;46511;-50
2024/02/20 02:28:57;;;;;;;;;17.75;16.25;;;;;15.85;100.00;102553.28;2107424;27;46257;-52
2024/02/20 02:29:57;;;;;;;;;21.00;16.50;;;;;15.85;100.00;102556.84;2107755;27;46417;-52
2024/02/20 02:30:59;;;;;;;;;20.25;18.25;;;;;15.85;100.00;102556.84;2106071;27;46406;-52
2024/02/20 02:32:00;;;;;;;;;20.40;18.20;;;;;15.87;100.00;102562.19;2108508;27;46914;-49
2024/02/20 02:33:01;;;;;;;;;14.75;14.25;;;;;15.87;100.00;102560.38;2093387;28;46353;-51
2024/02/20 02:34:01;;;;;;;;;18.75;16.50;;;;;15.88;100.00;102555.94;2094011;28;46209;-53
2024/02/20 02:35:02;;;;;;;;;23.25;18.75;;;;;15.87;100.00;102557.69;2108458;27;45081;-52
2024/02/20 02:36:03;;;;;;;;;15.80;15.80;;;;;15.84;100.00;102560.44;2111506;27;46409;-51
2024/02/20 02:37:03;;;;;;;;;20.25;18.75;;;;;15.85;100.00;102555.97;2111155;27;46397;-53
2024/02/20 02:38:05;;;;;;;;;16.25;15.75;;;;;15.85;100.00;102555.97;2110518;27;46801;-50
2024/02/20 02:39:07;;;;;;;;;19.00;17.40;;;;;15.84;100.00;102560.44;2111310;27;47029;-51
2024/02/20 02:40:11;;;;;;;;;17.80;17.20;;;;;15.85;100.00;102554.16;2111471;27;46865;-53
2024/02/20 02:41:12;;;;;;;;;20.00;16.60;;;;;15.97;100.00;102560.25;2111569;27;46734;-53
2024/02/20 02:42:13;;;;;;;;;18.00;17.50;;;;;15.99;100.00;102562.00;2108885;27;46258;-49
2024/02/20 02:43:13;;;;;;;;;20.75;16.00;;;;;16.02;100.00;102563.78;2112097;27;46191;-51
2024/02/20 02:44:13;;;;;;;;;11.25;10.50;;;;;16.03;100.00;102561.06;2111663;27;46658;-53
2024/02/20 02:45:13;;;;;;;;;20.75;17.00;;;;;16.03;100.00;102557.50;2111770;27;46180;-49
2024/02/20 02:46:14;;;;;;;;;20.25;19.25;;;;;15.99;100.00;102561.13;2111598;27;46270;-54
2024/02/20 02:47:14;;;;;;;;;18.75;17.75;;;;;16.00;100.00;102554.84;2112210;27;46288;-51
2024/02/20 02:48:14;;;;;;;;;18.50;18.00;;;;;15.99;100.00;102561.13;2111241;27;46475;-52
2024/02/20 02:49:15;;;;;;;;;17.00;17.00;;;;;16.00;100.00;102562.88;2111847;27;45110;-51
2024/02/20 02:50:15;;;;;;;;;22.25;14.25;;;;;15.86;100.00;102555.94;2111810;27;46651;-52
2024/02/20 02:51:16;;;;;;;;;21.75;20.00;;;;;15.94;100.00;102563.88;2111936;27;47129;-52
2024/02/20 02:52:16;;;;;;;;;19.75;17.75;;;;;15.96;100.00;102556.69;2111565;27;46633;-51
2024/02/20 02:53:17;;;;;;;;;21.25;16.75;;;;;15.85;100.00;102555.97;2111008;27;46343;-49
2024/02/20 02:54:17;;;;;;;;;19.00;18.00;;;;;15.81;100.00;102557.81;2111046;27;46941;-52
2024/02/20 02:55:20;;;;;;;;;21.50;18.75;;;;;15.89;100.00;102561.28;2109672;27;46285;-49
2024/02/20 02:56:22;;;;;;;;;19.60;18.60;;;;;15.86;100.00;102555.94;2111563;27;46390;-53
2024/02/20 02:57:22;;;;;;;;;20.00;18.80;;;;;15.87;100.00;102554.16;2098406;28;46532;-50
2024/02/20 02:58:23;;;;;;;;;21.75;19.25;;;;;15.87;100.00;102565.72;2096947;28;45761;-50
2024/02/20 02:59:23;;;;;;;;;18.75;18.50;;;;;15.85;100.00;102562.19;2111139;27;46717;-49
2024/02/20 03:00:23;;;;;;;;;20.75;20.75;;;;;15.89;100.00;102566.63;2111342;27;46263;-50
2024/02/20 03:01:24;;;;;;;;;19.75;19.75;;;;;15.92;100.00;102567.47;2111619;27;46334;-52
2024/02/20 03:02:25;;;;;;;;;20.25;18.50;;;;;15.91;100.00;102566.59;2111789;27;46476;-53
2024/02/20 03:03:26;;;;;;;;;20.00;18.00;;;;;15.89;100.00;102560.38;2111188;27;46292;-50
2024/02/20 03:04:29;;;;;;;;;13.80;12.60;;;;;15.88;100.00;102563.97;2111859;27;46741;-50
2024/02/20 03:05:31;;;;;;;;;19.80;19.40;;;;;15.87;100.00;102559.50;2111861;27;46908;-49
2024/02/20 03:06:37;;;;;;;;;20.80;19.40;;;;;15.87;100.00;102555.03;2109840;27;46552;-49
2024/02/20 03:07:38;;;;;;;;;22.40;16.80;;;;;15.87;100.00;102556.81;2111350;27;47038;-48
2024/02/20 03:08:38;;;;;;;;;19.60;18.20;;;;;15.84;100.00;102555.06;2111446;27;46721;-51
2024/02/20 03:09:39;;;;;;;;;22.25;19.00;;;;;15.87;100.00;102555.03;2111912;27;46452;-49
2024/02/20 03:10:39;;;;;;;;;22.25;19.00;;;;;15.87;100.00;102557.69;2111163;27;47182;-50
2024/02/20 03:11:41;;;;;;;;;24.25;22.50;;;;;15.88;100.00;102554.16;2111592;27;46619;-51
2024/02/20 03:12:41;;;;;;;;;20.80;19.60;;;;;15.85;100.00;102551.50;2109346;27;46499;-49
2024/02/20 03:13:41;;;;;;;;;21.75;19.00;;;;;15.84;100.00;102556.88;2109531;27;46804;-52
2024/02/20 03:14:42;;;;;;;;;21.00;20.75;;;;;15.82;100.00;102554.22;2111241;27;46598;-52
2024/02/20 03:15:42;;;;;;;;;18.50;17.25;;;;;15.91;100.00;102547.84;2109980;27;46778;-53
2024/02/20 03:16:43;;;;;;;;;20.75;20.50;;;;;16.03;100.00;102547.69;2110922;27;46213;-52
2024/02/20 03:17:45;;;;;;;;;15.75;15.75;;;;;16.10;100.00;102543.97;2111534;27;46137;-50
2024/02/20 03:18:45;;;;;;;;;22.20;21.40;;;;;16.02;100.00;102545.91;2110662;27;47085;-53
2024/02/20 03:19:46;;;;;;;;;19.75;19.25;;;;;16.03;100.00;102550.34;2111080;27;46722;-51
2024/02/20 03:20:47;;;;;;;;;20.60;20.60;;;;;16.02;100.00;102553.94;2110982;27;46859;-54
2024/02/20 03:21:47;;;;;;;;;19.75;19.75;;;;;16.13;100.00;102543.97;2111532;27;46443;-54
2024/02/20 03:22:47;;;;;;;;;24.25;23.25;;;;;16.16;100.00;102543.00;2111287;27;46737;-51
2024/02/20 03:23:48;;;;;;;;;21.50;18.00;;;;;16.01;100.00;102543.25;2111613;27;46260;-53
2024/02/20 03:24:48;;;;;;;;;25.75;24.25;;;;;15.99;100.00;102540.56;2109926;27;46527;-51
2024/02/20 03:25:49;;;;;;;;;21.75;20.25;;;;;16.05;100.00;102534.25;2111425;27;46698;-50
2024/02/20 03:26:49;;;;;;;;;65.25;52.75;;;;;15.98;100.00;102537.94;2109030;27;46959;-50
2024/02/20 03:27:49;;;;;;;;;51.50;42.75;;;;;15.96;100.00;102537.94;2111416;27;46171;-52
2024/02/20 03:28:50;;;;;;;;;56.75;43.75;;;;;15.96;100.00;102537.94;2111538;27;46270;-48
2024/02/20 03:29:50;;;;;;;;;34.50;30.50;;;;;16.02;100.00;102542.34;2110525;27;46734;-50
2024/02/20 03:30:51;;;;;;;;;36.75;32.00;;;;;16.05;100.00;102537.81;2109555;27;46395;-51
2024/02/20 03:31:51;;;;;;;;;32.50;30.75;;;;;16.04;100.00;102530.69;2110539;27;46225;-51
2024/02/20 03:32:52;;;;;;;;;36.25;32.50;;;;;15.99;100.00;102539.69;2105941;27;46139;-51
2024/02/20 03:33:52;;;;;;;;;28.25;26.50;;;;;15.98;100.00;102530.78;2098632;28;46362;-49
2024/02/20 03:34:52;;;;;;;;;21.75;20.00;;;;;15.97;100.00;102538.84;2088876;28;46246;-52
2024/02/20 03:35:53;;;;;;;;;25.75;22.25;;;;;15.96;100.00;102548.66;2098098;28;47683;-48
2024/02/20 03:36:53;;;;;;;;;23.75;21.50;;;;;15.97;100.00;102550.44;2107160;27;46832;-51
2024/02/20 03:37:53;;;;;;;;;26.75;21.00;;;;;15.94;100.00;102546.91;2106145;27;46576;-52
2024/02/20 03:38:54;;;;;;;;;25.00;22.50;;;;;15.89;100.00;102553.25;2106720;27;46191;-52
2024/02/20 03:39:54;;;;;;;;;29.50;23.50;;;;;15.84;100.00;102547.03;2106678;27;46653;-52
2024/02/20 03:40:55;;;;;;;;;22.25;19.25;;;;;15.84;100.00;102544.38;2107280;27;46882;-52
2024/02/20 03:41:55;;;;;;;;;27.25;21.75;;;;;15.87;100.00;102538.97;2107380;27;46571;-50
2024/02/20 03:42:55;;;;;;;;;28.25;24.75;;;;;15.87;100.00;102541.63;2097358;28;46637;-52
2024/02/20 03:43:55;;;;;;;;;24.50;22.25;;;;;15.88;100.00;102547.91;2097438;28;46683;-49
2024/02/20 03:44:56;;;;;;;;;22.00;21.00;;;;;15.87;100.00;102538.97;2107662;27;46691;-52
2024/02/20 03:45:56;;;;;;;;;30.75;22.25;;;;;15.88;100.00;102540.75;2104900;27;46507;-52
2024/02/20 03:46:56;;;;;;;;;26.00;23.00;;;;;15.98;100.00;102537.94;2107071;27;46712;-50
2024/02/20 03:47:57;;;;;;;;;25.75;23.00;;;;;16.00;100.00;102533.44;2105812;27;46196;-53
2024/02/20 03:48:57;;;;;;;;;24.25;22.25;;;;;16.00;100.00;102523.59;2105672;27;46163;-50
2024/02/20 03:49:57;;;;;;;;;25.75;22.50;;;;;16.00;100.00;102528.06;2106722;27;46379;-53
2024/02/20 03:50:58;;;;;;;;;21.50;21.50;;;;;15.94;100.00;102521.03;2106599;27;46788;-51
2024/02/20 03:51:58;;;;;;;;;23.00;21.50;;;;;15.98;100.00;102519.19;2106748;27;46227;-49
2024/02/20 03:53:01;;;;;;;;;25.25;24.00;;;;;16.00;100.00;102520.91;2107351;27;47402;-51
2024/02/20 03:54:01;;;;;;;;;22.00;21.00;;;;;16.10;100.00;102530.59;2106477;27;46702;-52
2024/02/20 03:55:02;;;;;;;;;27.25;24.50;;;;;16.17;100.00;102515.31;2106994;27;46783;-51
2024/02/20 03:56:02;;;;;;;;;22.50;22.25;;;;;16.24;100.00;102525.00;2106133;27;46106;-51
2024/02/20 03:57:03;;;;;;;;;28.50;21.75;;;;;16.28;100.00;102520.50;2107570;27;46779;-52
2024/02/20 03:58:04;;;;;;;;;24.00;22.00;;;;;16.30;100.00;102514.19;2107434;27;46395;-50
2024/02/20 03:59:04;;;;;;;;;27.00;25.25;;;;;16.31;100.00;102517.75;2106785;27;46366;-52
2024/02/20 04:00:11;;;;;;;;;23.50;23.00;;;;;16.32;100.00;102517.72;2080783;28;46290;-50
2024/02/20 04:01:11;;;;;;;;;28.40;22.80;;;;;16.32;100.00;102515.06;2083756;27;46453;-51
2024/02/20 04:02:12;;;;;;;;;25.25;22.75;;;;;16.31;100.00;102513.28;2106719;27;46196;-53
2024/02/20 04:03:12;;;;;;;;;25.00;22.25;;;;;16.31;100.00;102518.66;2096668;28;46502;-52
2024/02/20 04:04:13;;;;;;;;;31.50;27.25;;;;;16.32;100.00;102522.22;2097986;28;46308;-53
2024/02/20 04:05:13;;;;;;;;;24.25;23.50;;;;;16.33;100.00;102523.97;2106567;27;46262;-51
2024/02/20 04:06:15;;;;;;;;;22.75;22.75;;;;;16.36;100.00;102524.81;2096860;28;46706;-51
2024/02/20 04:07:16;;;;;;;;;23.40;21.00;;;;;16.32;100.00;102520.41;2097625;27;46689;-50
2024/02/20 04:08:16;;;;;;;;;22.00;22.00;;;;;16.44;100.00;102516.66;2107357;27;46385;-50
2024/02/20 04:09:16;;;;;;;;;27.50;25.00;;;;;16.46;100.00;102509.47;2106577;27;46844;-54
2024/02/20 04:10:17;;;;;;;;;23.00;21.25;;;;;16.49;100.00;102514.75;2105733;27;46636;-50
2024/02/20 04:11:18;;;;;;;;;25.50;24.00;;;;;16.37;100.00;102513.16;2107271;27;46316;-51
2024/02/20 04:12:18;;;;;;;;;26.25;23.00;;;;;16.38;100.00;102514.06;2105380;27;46732;-51
2024/02/20 04:13:18;;;;;;;;;26.75;23.25;;;;;16.38;100.00;102511.38;2089020;28;46244;-52
2024/02/20 04:14:19;;;;;;;;;21.75;20.25;;;;;16.37;100.00;102509.59;2089679;28;46273;-53
2024/02/20 04:15:20;;;;;;;;;25.00;22.25;;;;;16.36;100.00;102510.53;2107068;27;46927;-49
2024/02/20 04:16:20;;;;;;;;;24.00;22.20;;;;;16.33;100.00;102506.09;2106794;27;45733;-52
2024/02/20 04:17:21;;;;;;;;;26.25;22.25;;;;;16.32;100.00;102515.06;2106754;27;46941;-54
2024/02/20 04:18:21;;;;;;;;;24.00;24.00;;;;;16.33;100.00;102505.22;2108910;27;46431;-54
2024/02/20 04:19:21;;;;;;;;;25.00;23.00;;;;;16.30;100.00;102505.28;2108531;27;46514;-51
2024/02/20 04:20:22;;;;;;;;;27.25;23.00;;;;;16.30;100.00;102503.50;2107489;27;46555;-53
2024/02/20 04:21:22;;;;;;;;;30.00;24.25;;;;;16.28;100.00;102508.00;2108298;27;46232;-52
2024/02/20 04:22:22;;;;;;;;;24.25;23.00;;;;;16.26;100.00;102499.09;2105490;27;46833;-53
2024/02/20 04:23:23;;;;;;;;;30.75;23.75;;;;;16.25;100.00;102496.41;2107948;27;46175;-54
2024/02/20 04:24:23;;;;;;;;;29.00;25.00;;;;;16.25;100.00;102497.31;2108043;27;45806;-55
2024/02/20 04:25:24;;;;;;;;;25.75;24.75;;;;;16.26;100.00;102507.13;2107912;27;46322;-51
2024/02/20 04:26:25;;;;;;;;;31.25;29.00;;;;;16.27;100.00;102502.66;2106739;27;46227;-53
2024/02/20 04:27:26;;;;;;;;;27.60;26.20;;;;;16.25;100.00;102499.09;2108024;27;46276;-51
2024/02/20 04:28:28;;;;;;;;;27.80;26.00;;;;;16.26;100.00;102501.78;2107669;27;46942;-52
2024/02/20 04:29:29;;;;;;;;;25.60;23.00;;;;;16.27;100.00;102502.66;2107878;27;46958;-52
2024/02/20 04:30:29;;;;;;;;;25.25;25.00;;;;;16.26;100.00;102500.88;2108674;27;46099;-55
2024/02/20 04:31:30;;;;;;;;;24.00;23.00;;;;;16.26;100.00;102496.41;2108272;27;46261;-54
2024/02/20 04:32:30;;;;;;;;;27.50;22.75;;;;;16.25;100.00;102502.66;2108089;27;46976;-55
2024/02/20 04:33:30;;;;;;;;;23.75;23.00;;;;;16.26;100.00;102504.47;2107316;27;47000;-53